sensor_id;sensor_type;location;lat;lon;timestamp;temperature;humidity
1766;DHT22;880;52.452;8.656;2023-03-18T00:02:00;13.20;99.90
1766;DHT22;880;52.452;8.656;2023-03-18T00:04:28;13.20;99.90
1766;DHT22;880;52.452;8.656;2023-03-18T00:06:56;13.20;99.90
1766;DHT22;880;52.452;8.656;2023-03-18T00:09:23;13.10;99.90
1766;DHT22;880;52.452;8.656;2023-03-18T00:11:50;13.10;99.90
1766;DHT22;880;52.452;8.656;2023-03-18T00:14:17;13.10;99.90
1766;DHT22;880;52.452;8.656;2023-03-18T00:16:45;13.00;99.90
1766;DHT22;880;52.452;8.656;2023-03-18T00:19:12;13.00;99.90
1766;DHT22;880;52.452;8.656;2023-03-18T00:21:39;13.00;99.90
1766;DHT22;880;52.452;8.656;2023-03-18T00:24:06;12.90;99.90
1766;DHT22;880;52.452;8.656;2023-03-18T00:26:33;12.80;99.90
1766;DHT22;880;52.452;8.656;2023-03-18T00:29:00;12.80;99.90
1766;DHT22;880;52.452;8.656;2023-03-18T00:31:27;12.80;99.90
1766;DHT22;880;52.452;8.656;2023-03-18T00:33:56;12.80;99.90
1766;DHT22;880;52.452;8.656;2023-03-18T00:36:23;12.60;99.90
1766;DHT22;880;52.452;8.656;2023-03-18T00:38:52;12.70;99.90
1766;DHT22;880;52.452;8.656;2023-03-18T00:41:27;12.60;99.90
1766;DHT22;880;52.452;8.656;2023-03-18T00:43:55;12.60;99.90
1766;DHT22;880;52.452;8.656;2023-03-18T00:46:34;12.60;99.90
1766;DHT22;880;52.452;8.656;2023-03-18T00:49:04;12.50;99.90
1766;DHT22;880;52.452;8.656;2023-03-18T00:51:34;12.50;99.90
1766;DHT22;880;52.452;8.656;2023-03-18T00:54:05;12.40;99.90
1766;DHT22;880;52.452;8.656;2023-03-18T00:56:34;12.40;99.90
1766;DHT22;880;52.452;8.656;2023-03-18T00:59:04;12.40;99.90
1766;DHT22;880;52.452;8.656;2023-03-18T01:01:32;12.40;99.90
1766;DHT22;880;52.452;8.656;2023-03-18T01:04:00;12.30;99.90
1766;DHT22;880;52.452;8.656;2023-03-18T01:06:31;12.20;99.90
1766;DHT22;880;52.452;8.656;2023-03-18T01:09:00;12.10;99.90
1766;DHT22;880;52.452;8.656;2023-03-18T01:11:28;12.10;99.90
1766;DHT22;880;52.452;8.656;2023-03-18T01:13:56;12.00;99.90
1766;DHT22;880;52.452;8.656;2023-03-18T01:16:24;11.90;99.90
1766;DHT22;880;52.452;8.656;2023-03-18T01:18:52;11.80;99.90
1766;DHT22;880;52.452;8.656;2023-03-18T01:21:19;11.80;99.90
1766;DHT22;880;52.452;8.656;2023-03-18T01:23:53;11.70;99.90
1766;DHT22;880;52.452;8.656;2023-03-18T01:26:21;11.70;99.90
1766;DHT22;880;52.452;8.656;2023-03-18T01:28:48;11.70;99.90
1766;DHT22;880;52.452;8.656;2023-03-18T01:31:15;11.60;99.90
1766;DHT22;880;52.452;8.656;2023-03-18T01:33:45;11.60;99.90
1766;DHT22;880;52.452;8.656;2023-03-18T01:36:13;11.50;99.90
1766;DHT22;880;52.452;8.656;2023-03-18T01:38:41;11.50;99.90
1766;DHT22;880;52.452;8.656;2023-03-18T01:41:11;11.50;99.90
1766;DHT22;880;52.452;8.656;2023-03-18T01:43:40;11.40;99.90
1766;DHT22;880;52.452;8.656;2023-03-18T01:46:30;11.40;99.90
1766;DHT22;880;52.452;8.656;2023-03-18T01:49:00;11.50;99.90
1766;DHT22;880;52.452;8.656;2023-03-18T01:51:34;11.40;99.90
1766;DHT22;880;52.452;8.656;2023-03-18T01:54:02;11.40;99.90
1766;DHT22;880;52.452;8.656;2023-03-18T01:56:32;11.40;99.90
1766;DHT22;880;52.452;8.656;2023-03-18T01:59:03;11.50;99.90
1766;DHT22;880;52.452;8.656;2023-03-18T02:01:41;11.50;99.90
1766;DHT22;880;52.452;8.656;2023-03-18T02:04:14;11.50;99.90
1766;DHT22;880;52.452;8.656;2023-03-18T02:06:42;11.50;99.90
1766;DHT22;880;52.452;8.656;2023-03-18T02:09:10;11.50;99.90
1766;DHT22;880;52.452;8.656;2023-03-18T02:11:43;11.50;99.90
1766;DHT22;880;52.452;8.656;2023-03-18T02:14:14;11.50;99.90
1766;DHT22;880;52.452;8.656;2023-03-18T02:16:50;11.50;99.90
1766;DHT22;880;52.452;8.656;2023-03-18T02:22:53;11.50;99.90
1766;DHT22;880;52.452;8.656;2023-03-18T02:28:23;11.50;99.90
1766;DHT22;880;52.452;8.656;2023-03-18T02:30:55;11.50;99.90
1766;DHT22;880;52.452;8.656;2023-03-18T02:33:27;11.40;99.90
1766;DHT22;880;52.452;8.656;2023-03-18T02:36:02;11.50;99.90
1766;DHT22;880;52.452;8.656;2023-03-18T02:38:44;11.40;99.90
1766;DHT22;880;52.452;8.656;2023-03-18T02:41:19;11.40;99.90
1766;DHT22;880;52.452;8.656;2023-03-18T02:43:48;11.40;99.90
1766;DHT22;880;52.452;8.656;2023-03-18T02:46:35;11.40;99.90
1766;DHT22;880;52.452;8.656;2023-03-18T02:49:09;11.40;99.90
1766;DHT22;880;52.452;8.656;2023-03-18T02:51:37;11.50;99.90
1766;DHT22;880;52.452;8.656;2023-03-18T02:54:12;11.50;99.90
1766;DHT22;880;52.452;8.656;2023-03-18T02:56:43;11.50;99.90
1766;DHT22;880;52.452;8.656;2023-03-18T02:59:11;11.50;99.90
1766;DHT22;880;52.452;8.656;2023-03-18T03:01:41;11.50;99.90
1766;DHT22;880;52.452;8.656;2023-03-18T03:04:12;11.50;99.90
1766;DHT22;880;52.452;8.656;2023-03-18T03:06:40;11.50;99.90
1766;DHT22;880;52.452;8.656;2023-03-18T03:09:10;11.50;99.90
1766;DHT22;880;52.452;8.656;2023-03-18T03:11:39;11.40;99.90
1766;DHT22;880;52.452;8.656;2023-03-18T03:14:13;11.50;99.90
1766;DHT22;880;52.452;8.656;2023-03-18T03:16:42;11.40;99.90
1766;DHT22;880;52.452;8.656;2023-03-18T03:19:09;11.50;99.90
1766;DHT22;880;52.452;8.656;2023-03-18T03:21:36;11.50;99.90
1766;DHT22;880;52.452;8.656;2023-03-18T03:24:05;11.50;99.90
1766;DHT22;880;52.452;8.656;2023-03-18T03:26:32;11.50;99.90
1766;DHT22;880;52.452;8.656;2023-03-18T03:29:01;11.50;99.90
1766;DHT22;880;52.452;8.656;2023-03-18T03:31:29;11.50;99.90
1766;DHT22;880;52.452;8.656;2023-03-18T03:33:57;11.50;99.90
1766;DHT22;880;52.452;8.656;2023-03-18T03:36:25;11.50;99.90
1766;DHT22;880;52.452;8.656;2023-03-18T03:38:55;11.50;99.90
1766;DHT22;880;52.452;8.656;2023-03-18T03:41:22;11.50;99.90
1766;DHT22;880;52.452;8.656;2023-03-18T03:43:49;11.50;99.90
1766;DHT22;880;52.452;8.656;2023-03-18T03:46:16;11.50;99.90
1766;DHT22;880;52.452;8.656;2023-03-18T03:48:43;11.50;99.90
1766;DHT22;880;52.452;8.656;2023-03-18T03:51:12;11.50;99.90
1766;DHT22;880;52.452;8.656;2023-03-18T03:53:40;11.60;99.90
1766;DHT22;880;52.452;8.656;2023-03-18T03:56:07;11.50;99.90
1766;DHT22;880;52.452;8.656;2023-03-18T03:58:34;11.50;99.90
1766;DHT22;880;52.452;8.656;2023-03-18T04:01:02;11.50;99.90
1766;DHT22;880;52.452;8.656;2023-03-18T04:03:32;11.50;99.90
1766;DHT22;880;52.452;8.656;2023-03-18T04:06:00;11.40;99.90
1766;DHT22;880;52.452;8.656;2023-03-18T04:08:29;11.40;99.90
1766;DHT22;880;52.452;8.656;2023-03-18T04:10:57;11.50;99.90
1766;DHT22;880;52.452;8.656;2023-03-18T04:13:25;11.50;99.90
1766;DHT22;880;52.452;8.656;2023-03-18T04:15:52;11.50;99.90
1766;DHT22;880;52.452;8.656;2023-03-18T04:18:20;11.50;99.90
1766;DHT22;880;52.452;8.656;2023-03-18T04:20:47;11.50;99.90
1766;DHT22;880;52.452;8.656;2023-03-18T04:23:26;11.50;99.90
1766;DHT22;880;52.452;8.656;2023-03-18T04:25:53;11.40;99.90
1766;DHT22;880;52.452;8.656;2023-03-18T04:28:20;11.40;99.90
1766;DHT22;880;52.452;8.656;2023-03-18T04:30:48;11.40;99.90
1766;DHT22;880;52.452;8.656;2023-03-18T04:33:17;11.40;99.90
1766;DHT22;880;52.452;8.656;2023-03-18T04:35:46;11.40;99.90
1766;DHT22;880;52.452;8.656;2023-03-18T04:38:16;11.30;99.90
1766;DHT22;880;52.452;8.656;2023-03-18T04:40:44;11.30;99.90
1766;DHT22;880;52.452;8.656;2023-03-18T04:43:13;11.30;99.90
1766;DHT22;880;52.452;8.656;2023-03-18T04:45:40;11.30;99.90
1766;DHT22;880;52.452;8.656;2023-03-18T04:48:07;11.30;99.90
1766;DHT22;880;52.452;8.656;2023-03-18T04:50:39;11.30;99.90
1766;DHT22;880;52.452;8.656;2023-03-18T04:53:09;11.30;99.90
1766;DHT22;880;52.452;8.656;2023-03-18T04:55:37;11.20;99.90
1766;DHT22;880;52.452;8.656;2023-03-18T04:58:07;11.20;99.90
1766;DHT22;880;52.452;8.656;2023-03-18T05:00:39;11.20;99.90
1766;DHT22;880;52.452;8.656;2023-03-18T05:03:16;11.20;99.90
1766;DHT22;880;52.452;8.656;2023-03-18T05:05:44;11.20;99.90
1766;DHT22;880;52.452;8.656;2023-03-18T05:08:13;11.30;99.90
1766;DHT22;880;52.452;8.656;2023-03-18T05:10:42;11.20;99.90
1766;DHT22;880;52.452;8.656;2023-03-18T05:13:11;11.20;99.90
1766;DHT22;880;52.452;8.656;2023-03-18T05:15:38;11.20;99.90
1766;DHT22;880;52.452;8.656;2023-03-18T05:18:05;11.20;99.90
1766;DHT22;880;52.452;8.656;2023-03-18T05:20:33;11.20;99.90
1766;DHT22;880;52.452;8.656;2023-03-18T05:23:00;11.20;99.90
1766;DHT22;880;52.452;8.656;2023-03-18T05:25:38;11.20;99.90
1766;DHT22;880;52.452;8.656;2023-03-18T05:28:05;11.10;99.90
1766;DHT22;880;52.452;8.656;2023-03-18T05:30:43;11.10;99.90
1766;DHT22;880;52.452;8.656;2023-03-18T05:33:13;11.10;99.90
1766;DHT22;880;52.452;8.656;2023-03-18T05:35:47;11.10;99.90
1766;DHT22;880;52.452;8.656;2023-03-18T05:38:17;11.10;99.90
1766;DHT22;880;52.452;8.656;2023-03-18T05:40:45;11.00;99.90
1766;DHT22;880;52.452;8.656;2023-03-18T05:43:20;11.10;99.90
1766;DHT22;880;52.452;8.656;2023-03-18T05:45:51;11.10;99.90
1766;DHT22;880;52.452;8.656;2023-03-18T05:48:23;11.00;99.90
1766;DHT22;880;52.452;8.656;2023-03-18T05:50:55;11.00;99.90
1766;DHT22;880;52.452;8.656;2023-03-18T05:53:25;10.90;99.90
1766;DHT22;880;52.452;8.656;2023-03-18T05:56:06;10.90;99.90
1766;DHT22;880;52.452;8.656;2023-03-18T05:58:33;10.90;99.90
1766;DHT22;880;52.452;8.656;2023-03-18T06:01:18;11.00;99.90
1766;DHT22;880;52.452;8.656;2023-03-18T06:03:46;11.00;99.90
1766;DHT22;880;52.452;8.656;2023-03-18T06:06:13;11.00;99.90
1766;DHT22;880;52.452;8.656;2023-03-18T06:08:40;11.00;99.90
1766;DHT22;880;52.452;8.656;2023-03-18T06:11:07;11.00;99.90
1766;DHT22;880;52.452;8.656;2023-03-18T06:13:34;11.10;99.90
1766;DHT22;880;52.452;8.656;2023-03-18T06:16:02;11.10;99.90
1766;DHT22;880;52.452;8.656;2023-03-18T06:18:29;11.10;99.90
1766;DHT22;880;52.452;8.656;2023-03-18T06:20:57;11.00;99.90
1766;DHT22;880;52.452;8.656;2023-03-18T06:23:24;11.00;99.90
1766;DHT22;880;52.452;8.656;2023-03-18T06:25:51;11.10;99.90
1766;DHT22;880;52.452;8.656;2023-03-18T06:28:23;11.20;99.90
1766;DHT22;880;52.452;8.656;2023-03-18T06:30:57;11.20;99.90
1766;DHT22;880;52.452;8.656;2023-03-18T06:33:25;11.20;99.90
1766;DHT22;880;52.452;8.656;2023-03-18T06:35:53;11.20;99.90
1766;DHT22;880;52.452;8.656;2023-03-18T06:38:21;11.20;99.90
1766;DHT22;880;52.452;8.656;2023-03-18T06:40:49;11.30;99.90
1766;DHT22;880;52.452;8.656;2023-03-18T06:43:16;11.30;99.90
1766;DHT22;880;52.452;8.656;2023-03-18T06:45:44;11.30;99.90
1766;DHT22;880;52.452;8.656;2023-03-18T06:48:12;11.40;99.90
1766;DHT22;880;52.452;8.656;2023-03-18T06:50:41;11.30;99.90
1766;DHT22;880;52.452;8.656;2023-03-18T06:53:23;11.30;99.90
1766;DHT22;880;52.452;8.656;2023-03-18T06:55:51;11.40;99.90
1766;DHT22;880;52.452;8.656;2023-03-18T06:58:22;11.40;99.90
1766;DHT22;880;52.452;8.656;2023-03-18T07:01:02;11.40;99.90
1766;DHT22;880;52.452;8.656;2023-03-18T07:03:35;11.40;99.90
1766;DHT22;880;52.452;8.656;2023-03-18T07:06:03;11.50;99.90
1766;DHT22;880;52.452;8.656;2023-03-18T07:08:31;11.50;99.90
1766;DHT22;880;52.452;8.656;2023-03-18T07:10:58;11.50;99.90
1766;DHT22;880;52.452;8.656;2023-03-18T07:13:25;11.60;99.90
1766;DHT22;880;52.452;8.656;2023-03-18T07:15:52;11.60;99.90
1766;DHT22;880;52.452;8.656;2023-03-18T07:18:23;11.60;99.90
1766;DHT22;880;52.452;8.656;2023-03-18T07:20:50;11.60;99.90
1766;DHT22;880;52.452;8.656;2023-03-18T07:23:17;11.60;99.90
1766;DHT22;880;52.452;8.656;2023-03-18T07:25:44;11.70;99.90
1766;DHT22;880;52.452;8.656;2023-03-18T07:28:11;11.70;99.90
1766;DHT22;880;52.452;8.656;2023-03-18T07:30:38;11.70;99.90
1766;DHT22;880;52.452;8.656;2023-03-18T07:33:05;11.70;99.90
1766;DHT22;880;52.452;8.656;2023-03-18T07:35:32;11.60;99.90
1766;DHT22;880;52.452;8.656;2023-03-18T07:38:00;11.60;99.90
1766;DHT22;880;52.452;8.656;2023-03-18T07:40:26;11.70;99.90
1766;DHT22;880;52.452;8.656;2023-03-18T07:42:53;11.60;99.90
1766;DHT22;880;52.452;8.656;2023-03-18T07:45:21;11.60;99.90
1766;DHT22;880;52.452;8.656;2023-03-18T07:47:48;11.60;99.90
1766;DHT22;880;52.452;8.656;2023-03-18T07:50:15;11.70;99.90
1766;DHT22;880;52.452;8.656;2023-03-18T07:52:42;11.60;99.90
1766;DHT22;880;52.452;8.656;2023-03-18T07:55:10;11.70;99.90
1766;DHT22;880;52.452;8.656;2023-03-18T07:57:38;11.60;99.90
1766;DHT22;880;52.452;8.656;2023-03-18T08:00:07;11.60;99.90
1766;DHT22;880;52.452;8.656;2023-03-18T08:02:39;11.50;99.90
1766;DHT22;880;52.452;8.656;2023-03-18T08:05:07;11.60;99.90
1766;DHT22;880;52.452;8.656;2023-03-18T08:07:35;11.60;99.90
1766;DHT22;880;52.452;8.656;2023-03-18T08:10:02;11.60;99.90
1766;DHT22;880;52.452;8.656;2023-03-18T08:12:30;11.60;99.90
1766;DHT22;880;52.452;8.656;2023-03-18T08:15:16;11.60;99.90
1766;DHT22;880;52.452;8.656;2023-03-18T08:17:43;11.70;99.90
1766;DHT22;880;52.452;8.656;2023-03-18T08:20:11;11.70;99.90
1766;DHT22;880;52.452;8.656;2023-03-18T08:22:38;11.80;99.90
1766;DHT22;880;52.452;8.656;2023-03-18T08:25:06;11.80;99.90
1766;DHT22;880;52.452;8.656;2023-03-18T08:27:33;11.90;99.90
1766;DHT22;880;52.452;8.656;2023-03-18T08:30:01;11.90;99.90
1766;DHT22;880;52.452;8.656;2023-03-18T08:32:29;12.00;99.90
1766;DHT22;880;52.452;8.656;2023-03-18T08:34:56;12.00;99.90
1766;DHT22;880;52.452;8.656;2023-03-18T08:37:23;12.20;99.90
1766;DHT22;880;52.452;8.656;2023-03-18T08:39:51;12.30;99.90
1766;DHT22;880;52.452;8.656;2023-03-18T08:42:18;12.50;99.90
1766;DHT22;880;52.452;8.656;2023-03-18T08:44:45;12.70;99.90
1766;DHT22;880;52.452;8.656;2023-03-18T08:47:12;13.00;99.90
1766;DHT22;880;52.452;8.656;2023-03-18T08:49:39;13.30;99.90
1766;DHT22;880;52.452;8.656;2023-03-18T08:52:06;13.60;99.90
1766;DHT22;880;52.452;8.656;2023-03-18T08:54:33;13.60;99.90
1766;DHT22;880;52.452;8.656;2023-03-18T08:57:00;13.40;99.90
1766;DHT22;880;52.452;8.656;2023-03-18T08:59:28;13.40;99.90
1766;DHT22;880;52.452;8.656;2023-03-18T09:01:55;13.20;99.90
1766;DHT22;880;52.452;8.656;2023-03-18T09:04:22;13.20;99.90
1766;DHT22;880;52.452;8.656;2023-03-18T09:06:51;13.10;99.90
1766;DHT22;880;52.452;8.656;2023-03-18T09:09:18;13.10;99.90
1766;DHT22;880;52.452;8.656;2023-03-18T09:11:47;13.00;99.90
1766;DHT22;880;52.452;8.656;2023-03-18T09:14:14;13.00;99.90
1766;DHT22;880;52.452;8.656;2023-03-18T09:16:41;13.00;99.90
1766;DHT22;880;52.452;8.656;2023-03-18T09:19:08;12.90;99.90
1766;DHT22;880;52.452;8.656;2023-03-18T09:21:35;12.90;99.90
1766;DHT22;880;52.452;8.656;2023-03-18T09:24:02;13.00;99.90
1766;DHT22;880;52.452;8.656;2023-03-18T09:26:32;13.10;99.90
1766;DHT22;880;52.452;8.656;2023-03-18T09:29:25;13.10;99.90
1766;DHT22;880;52.452;8.656;2023-03-18T09:31:53;13.20;99.90
1766;DHT22;880;52.452;8.656;2023-03-18T09:34:21;13.20;99.90
1766;DHT22;880;52.452;8.656;2023-03-18T09:36:48;13.20;99.90
1766;DHT22;880;52.452;8.656;2023-03-18T09:39:18;13.30;99.90
1766;DHT22;880;52.452;8.656;2023-03-18T09:44:36;13.50;99.90
1766;DHT22;880;52.452;8.656;2023-03-18T09:47:36;13.60;99.90
1766;DHT22;880;52.452;8.656;2023-03-18T09:53:22;13.60;99.90
1766;DHT22;880;52.452;8.656;2023-03-18T09:56:00;13.80;99.90
1766;DHT22;880;52.452;8.656;2023-03-18T09:58:58;13.80;99.90
1766;DHT22;880;52.452;8.656;2023-03-18T10:01:31;13.80;99.90
1766;DHT22;880;52.452;8.656;2023-03-18T10:04:13;13.90;99.90
1766;DHT22;880;52.452;8.656;2023-03-18T10:07:01;14.00;99.90
1766;DHT22;880;52.452;8.656;2023-03-18T10:12:20;14.20;99.90
1766;DHT22;880;52.452;8.656;2023-03-18T10:15:03;14.30;99.90
1766;DHT22;880;52.452;8.656;2023-03-18T10:17:42;14.50;99.90
1766;DHT22;880;52.452;8.656;2023-03-18T10:20:36;14.90;99.90
1766;DHT22;880;52.452;8.656;2023-03-18T10:23:41;15.10;99.90
1766;DHT22;880;52.452;8.656;2023-03-18T10:29:22;15.20;99.90
1766;DHT22;880;52.452;8.656;2023-03-18T10:34:56;15.60;99.90
1766;DHT22;880;52.452;8.656;2023-03-18T10:40:15;15.80;99.90
1766;DHT22;880;52.452;8.656;2023-03-18T10:42:44;15.60;99.90
1766;DHT22;880;52.452;8.656;2023-03-18T10:45:24;15.50;99.90
1766;DHT22;880;52.452;8.656;2023-03-18T10:48:06;15.40;99.90
1766;DHT22;880;52.452;8.656;2023-03-18T10:51:15;15.30;99.90
1766;DHT22;880;52.452;8.656;2023-03-18T10:53:50;15.20;99.90
1766;DHT22;880;52.452;8.656;2023-03-18T10:56:26;15.00;99.90
1766;DHT22;880;52.452;8.656;2023-03-18T10:58:53;15.00;99.90
1766;DHT22;880;52.452;8.656;2023-03-18T11:01:23;15.00;99.90
1766;DHT22;880;52.452;8.656;2023-03-18T11:04:02;15.10;99.90
1766;DHT22;880;52.452;8.656;2023-03-18T11:06:41;15.10;99.90
1766;DHT22;880;52.452;8.656;2023-03-18T11:09:24;15.10;99.90
1766;DHT22;880;52.452;8.656;2023-03-18T11:12:01;15.00;99.90
1766;DHT22;880;52.452;8.656;2023-03-18T11:14:32;15.00;99.90
1766;DHT22;880;52.452;8.656;2023-03-18T11:17:04;15.00;99.90
1766;DHT22;880;52.452;8.656;2023-03-18T11:19:39;14.90;99.90
1766;DHT22;880;52.452;8.656;2023-03-18T11:22:26;15.00;99.90
1766;DHT22;880;52.452;8.656;2023-03-18T11:27:58;15.40;99.90
1766;DHT22;880;52.452;8.656;2023-03-18T11:30:36;15.50;99.90
1766;DHT22;880;52.452;8.656;2023-03-18T11:33:14;15.80;99.90
1766;DHT22;880;52.452;8.656;2023-03-18T11:38:31;16.10;99.90
1766;DHT22;880;52.452;8.656;2023-03-18T11:41:14;16.40;99.90
1766;DHT22;880;52.452;8.656;2023-03-18T11:44:02;16.60;99.90
1766;DHT22;880;52.452;8.656;2023-03-18T11:46:52;16.80;99.90
1766;DHT22;880;52.452;8.656;2023-03-18T11:49:25;17.10;99.90
1766;DHT22;880;52.452;8.656;2023-03-18T11:52:00;17.00;99.90
1766;DHT22;880;52.452;8.656;2023-03-18T12:00:41;16.70;99.90
1766;DHT22;880;52.452;8.656;2023-03-18T12:09:21;17.40;99.90
1766;DHT22;880;52.452;8.656;2023-03-18T12:12:19;17.20;99.90
1766;DHT22;880;52.452;8.656;2023-03-18T12:35:50;16.30;99.90
1766;DHT22;880;52.452;8.656;2023-03-18T12:47:40;17.40;99.90
1766;DHT22;880;52.452;8.656;2023-03-18T12:50:17;17.50;99.90
1766;DHT22;880;52.452;8.656;2023-03-18T12:52:55;17.60;99.90
1766;DHT22;880;52.452;8.656;2023-03-18T12:55:37;17.70;99.90
1766;DHT22;880;52.452;8.656;2023-03-18T13:01:01;18.20;99.90
1766;DHT22;880;52.452;8.656;2023-03-18T13:03:38;18.10;99.90
1766;DHT22;880;52.452;8.656;2023-03-18T13:17:39;18.60;99.90
1766;DHT22;880;52.452;8.656;2023-03-18T13:20:23;18.80;99.90
1766;DHT22;880;52.452;8.656;2023-03-18T13:34:49;19.50;99.90
1766;DHT22;880;52.452;8.656;2023-03-18T13:43:16;19.20;99.90
1766;DHT22;880;52.452;8.656;2023-03-18T13:45:49;19.30;99.90
1766;DHT22;880;52.452;8.656;2023-03-18T13:48:27;19.50;99.90
1766;DHT22;880;52.452;8.656;2023-03-18T13:50:57;19.90;99.90
1766;DHT22;880;52.452;8.656;2023-03-18T13:53:32;19.90;99.90
1766;DHT22;880;52.452;8.656;2023-03-18T13:56:05;20.10;99.90
1766;DHT22;880;52.452;8.656;2023-03-18T13:58:40;20.20;99.90
1766;DHT22;880;52.452;8.656;2023-03-18T14:01:26;20.20;99.90
1766;DHT22;880;52.452;8.656;2023-03-18T14:04:28;20.30;99.90
1766;DHT22;880;52.452;8.656;2023-03-18T14:07:17;20.20;99.90
1766;DHT22;880;52.452;8.656;2023-03-18T14:12:45;19.90;99.90
1766;DHT22;880;52.452;8.656;2023-03-18T14:15:35;19.90;99.90
1766;DHT22;880;52.452;8.656;2023-03-18T14:18:17;19.90;99.90
1766;DHT22;880;52.452;8.656;2023-03-18T14:20:51;19.90;99.90
1766;DHT22;880;52.452;8.656;2023-03-18T14:23:41;19.90;99.90
1766;DHT22;880;52.452;8.656;2023-03-18T14:32:04;19.70;99.90
1766;DHT22;880;52.452;8.656;2023-03-18T14:34:54;19.80;99.90
1766;DHT22;880;52.452;8.656;2023-03-18T14:37:32;19.70;99.90
1766;DHT22;880;52.452;8.656;2023-03-18T14:40:20;19.60;99.90
1766;DHT22;880;52.452;8.656;2023-03-18T14:42:56;19.50;99.90
1766;DHT22;880;52.452;8.656;2023-03-18T14:45:35;19.40;99.90
1766;DHT22;880;52.452;8.656;2023-03-18T14:48:18;19.40;99.90
1766;DHT22;880;52.452;8.656;2023-03-18T14:50:48;19.50;99.90
1766;DHT22;880;52.452;8.656;2023-03-18T14:54:12;19.20;99.90
1766;DHT22;880;52.452;8.656;2023-03-18T14:56:38;19.20;99.90
1766;DHT22;880;52.452;8.656;2023-03-18T14:59:07;19.30;99.90
1766;DHT22;880;52.452;8.656;2023-03-18T15:01:44;19.20;99.90
1766;DHT22;880;52.452;8.656;2023-03-18T15:04:25;19.00;99.90
1766;DHT22;880;52.452;8.656;2023-03-18T15:06:55;19.00;99.90
1766;DHT22;880;52.452;8.656;2023-03-18T15:09:28;18.90;99.90
1766;DHT22;880;52.452;8.656;2023-03-18T15:11:58;18.80;99.90
1766;DHT22;880;52.452;8.656;2023-03-18T15:14:27;18.80;99.90
1766;DHT22;880;52.452;8.656;2023-03-18T15:16:58;18.90;99.90
1766;DHT22;880;52.452;8.656;2023-03-18T15:19:27;18.90;99.90
1766;DHT22;880;52.452;8.656;2023-03-18T15:21:56;18.80;99.90
1766;DHT22;880;52.452;8.656;2023-03-18T15:24:27;18.70;99.90
1766;DHT22;880;52.452;8.656;2023-03-18T15:27:11;18.70;99.90
1766;DHT22;880;52.452;8.656;2023-03-18T15:29:54;18.70;99.90
1766;DHT22;880;52.452;8.656;2023-03-18T15:32:47;18.70;99.90
1766;DHT22;880;52.452;8.656;2023-03-18T15:35:24;18.70;99.90
1766;DHT22;880;52.452;8.656;2023-03-18T15:41:06;18.80;99.90
1766;DHT22;880;52.452;8.656;2023-03-18T15:43:41;18.90;99.90
1766;DHT22;880;52.452;8.656;2023-03-18T15:46:29;19.00;99.90
1766;DHT22;880;52.452;8.656;2023-03-18T15:49:01;19.00;99.90
1766;DHT22;880;52.452;8.656;2023-03-18T15:51:32;18.80;99.90
1766;DHT22;880;52.452;8.656;2023-03-18T15:54:15;18.70;99.90
1766;DHT22;880;52.452;8.656;2023-03-18T15:56:46;18.40;99.90
1766;DHT22;880;52.452;8.656;2023-03-18T15:59:23;18.30;99.90
1766;DHT22;880;52.452;8.656;2023-03-18T16:01:56;18.30;99.90
1766;DHT22;880;52.452;8.656;2023-03-18T16:04:28;18.30;99.90
1766;DHT22;880;52.452;8.656;2023-03-18T16:06:55;18.40;99.90
1766;DHT22;880;52.452;8.656;2023-03-18T16:09:24;18.40;99.90
1766;DHT22;880;52.452;8.656;2023-03-18T16:11:58;18.40;99.90
1766;DHT22;880;52.452;8.656;2023-03-18T16:14:38;18.40;99.90
1766;DHT22;880;52.452;8.656;2023-03-18T16:17:11;18.40;99.90
1766;DHT22;880;52.452;8.656;2023-03-18T16:19:38;18.40;99.90
1766;DHT22;880;52.452;8.656;2023-03-18T16:22:05;18.30;99.90
1766;DHT22;880;52.452;8.656;2023-03-18T16:24:32;18.40;99.90
1766;DHT22;880;52.452;8.656;2023-03-18T16:27:00;18.30;99.90
1766;DHT22;880;52.452;8.656;2023-03-18T16:29:34;18.20;99.90
1766;DHT22;880;52.452;8.656;2023-03-18T16:32:03;18.10;99.90
1766;DHT22;880;52.452;8.656;2023-03-18T16:34:31;18.10;99.90
1766;DHT22;880;52.452;8.656;2023-03-18T16:36:58;17.90;99.90
1766;DHT22;880;52.452;8.656;2023-03-18T16:39:27;17.80;99.90
1766;DHT22;880;52.452;8.656;2023-03-18T16:42:01;17.70;99.90
1766;DHT22;880;52.452;8.656;2023-03-18T16:44:30;17.50;99.90
1766;DHT22;880;52.452;8.656;2023-03-18T16:47:00;17.40;99.90
1766;DHT22;880;52.452;8.656;2023-03-18T16:49:32;17.40;99.90
1766;DHT22;880;52.452;8.656;2023-03-18T16:52:00;17.30;99.90
1766;DHT22;880;52.452;8.656;2023-03-18T16:54:32;17.30;99.90
1766;DHT22;880;52.452;8.656;2023-03-18T16:57:01;17.40;99.90
1766;DHT22;880;52.452;8.656;2023-03-18T16:59:35;17.40;99.90
1766;DHT22;880;52.452;8.656;2023-03-18T17:02:03;17.30;99.90
1766;DHT22;880;52.452;8.656;2023-03-18T17:04:32;17.30;99.90
1766;DHT22;880;52.452;8.656;2023-03-18T17:07:01;17.30;99.90
1766;DHT22;880;52.452;8.656;2023-03-18T17:09:30;17.20;99.90
1766;DHT22;880;52.452;8.656;2023-03-18T17:12:03;17.10;99.90
1766;DHT22;880;52.452;8.656;2023-03-18T17:14:38;17.10;99.90
1766;DHT22;880;52.452;8.656;2023-03-18T17:17:14;17.10;99.90
1766;DHT22;880;52.452;8.656;2023-03-18T17:19:56;17.10;99.90
1766;DHT22;880;52.452;8.656;2023-03-18T17:22:29;17.00;99.90
1766;DHT22;880;52.452;8.656;2023-03-18T17:24:59;17.00;99.90
1766;DHT22;880;52.452;8.656;2023-03-18T17:27:34;17.00;99.90
1766;DHT22;880;52.452;8.656;2023-03-18T17:32:45;16.80;99.90
1766;DHT22;880;52.452;8.656;2023-03-18T17:35:15;16.80;99.90
1766;DHT22;880;52.452;8.656;2023-03-18T17:37:44;16.80;99.90
1766;DHT22;880;52.452;8.656;2023-03-18T17:40:13;16.90;99.90
1766;DHT22;880;52.452;8.656;2023-03-18T17:42:45;17.00;99.90
1766;DHT22;880;52.452;8.656;2023-03-18T17:45:27;17.10;99.90
1766;DHT22;880;52.452;8.656;2023-03-18T17:48:19;17.10;99.90
1766;DHT22;880;52.452;8.656;2023-03-18T17:50:53;17.10;99.90
1766;DHT22;880;52.452;8.656;2023-03-18T17:53:22;17.10;99.90
1766;DHT22;880;52.452;8.656;2023-03-18T17:55:51;16.90;99.90
1766;DHT22;880;52.452;8.656;2023-03-18T17:58:20;16.70;99.90
1766;DHT22;880;52.452;8.656;2023-03-18T18:00:49;16.50;99.90
1766;DHT22;880;52.452;8.656;2023-03-18T18:03:25;16.30;99.90
1766;DHT22;880;52.452;8.656;2023-03-18T18:05:55;16.10;99.90
1766;DHT22;880;52.452;8.656;2023-03-18T18:08:23;15.90;99.90
1766;DHT22;880;52.452;8.656;2023-03-18T18:10:53;15.70;99.90
1766;DHT22;880;52.452;8.656;2023-03-18T18:13:24;14.90;99.90
1766;DHT22;880;52.452;8.656;2023-03-18T18:15:51;14.20;99.90
1766;DHT22;880;52.452;8.656;2023-03-18T18:18:21;13.80;99.90
1766;DHT22;880;52.452;8.656;2023-03-18T18:20:55;13.40;99.90
1766;DHT22;880;52.452;8.656;2023-03-18T18:23:34;13.10;99.90
1766;DHT22;880;52.452;8.656;2023-03-18T18:26:05;12.90;99.90
1766;DHT22;880;52.452;8.656;2023-03-18T18:28:35;12.90;99.90
1766;DHT22;880;52.452;8.656;2023-03-18T18:31:06;12.80;99.90
1766;DHT22;880;52.452;8.656;2023-03-18T18:33:36;12.70;99.90
1766;DHT22;880;52.452;8.656;2023-03-18T18:36:04;12.60;99.90
1766;DHT22;880;52.452;8.656;2023-03-18T18:38:32;12.60;99.90
1766;DHT22;880;52.452;8.656;2023-03-18T18:40:59;12.60;99.90
1766;DHT22;880;52.452;8.656;2023-03-18T18:43:27;12.60;99.90
1766;DHT22;880;52.452;8.656;2023-03-18T18:45:55;12.50;99.90
1766;DHT22;880;52.452;8.656;2023-03-18T18:48:34;12.50;99.90